sensor_id;sensor_type;location;lat;lon;timestamp;pressure;altitude;pressure_sealevel;temperature;humidity
73700;BME280;62005;50.082;8.988;2023-08-12T00:00:48;100706.56;;;21.19;86.04
73700;BME280;62005;50.082;8.988;2023-08-12T00:03:14;100692.88;;;21.14;85.63
73700;BME280;62005;50.082;8.988;2023-08-12T00:05:39;100667.41;;;20.99;86.14
73700;BME280;62005;50.082;8.988;2023-08-12T00:08:05;100699.19;;;21.15;85.41
73700;BME280;62005;50.082;8.988;2023-08-12T00:10:31;100693.47;;;21.06;85.40
73700;BME280;62005;50.082;8.988;2023-08-12T00:12:57;100697.88;;;21.07;85.54
73700;BME280;62005;50.082;8.988;2023-08-12T00:15:22;100690.47;;;21.03;84.89
73700;BME280;62005;50.082;8.988;2023-08-12T00:17:47;100687.72;;;20.98;85.30
73700;BME280;62005;50.082;8.988;2023-08-12T00:20:13;100699.56;;;20.98;86.04
73700;BME280;62005;50.082;8.988;2023-08-12T00:22:39;100688.28;;;20.95;85.55
73700;BME280;62005;50.082;8.988;2023-08-12T00:25:05;100669.63;;;20.87;85.50
73700;BME280;62005;50.082;8.988;2023-08-12T00:27:31;100658.94;;;20.80;85.63
73700;BME280;62005;50.082;8.988;2023-08-12T00:29:56;100659.22;;;20.84;85.57
73700;BME280;62005;50.082;8.988;2023-08-12T00:32:21;100654.78;;;20.83;85.45
73700;BME280;62005;50.082;8.988;2023-08-12T00:34:47;100661.41;;;20.82;85.63
73700;BME280;62005;50.082;8.988;2023-08-12T00:37:12;100657.84;;;20.76;85.04
73700;BME280;62005;50.082;8.988;2023-08-12T00:39:37;100654.34;;;20.70;86.26
73700;BME280;62005;50.082;8.988;2023-08-12T00:42:03;100644.44;;;20.64;85.86
73700;BME280;62005;50.082;8.988;2023-08-12T00:44:28;100654.91;;;20.67;85.60
73700;BME280;62005;50.082;8.988;2023-08-12T00:46:53;100662.59;;;20.65;85.76
73700;BME280;62005;50.082;8.988;2023-08-12T00:49:20;100660.13;;;20.64;85.66
73700;BME280;62005;50.082;8.988;2023-08-12T00:51:49;100648.63;;;20.57;85.87
73700;BME280;62005;50.082;8.988;2023-08-12T00:54:14;100642.59;;;20.50;86.03
73700;BME280;62005;50.082;8.988;2023-08-12T00:56:41;100660.97;;;20.54;86.22
73700;BME280;62005;50.082;8.988;2023-08-12T00:59:08;100645.06;;;20.51;85.79
73700;BME280;62005;50.082;8.988;2023-08-12T01:01:35;100640.69;;;20.45;86.14
73700;BME280;62005;50.082;8.988;2023-08-12T01:04:01;100642.34;;;20.46;86.14
73700;BME280;62005;50.082;8.988;2023-08-12T01:06:27;100633.03;;;20.42;86.85
73700;BME280;62005;50.082;8.988;2023-08-12T01:08:52;100627.56;;;20.37;86.47
73700;BME280;62005;50.082;8.988;2023-08-12T01:11:27;100617.69;;;20.31;86.71
73700;BME280;62005;50.082;8.988;2023-08-12T01:16:30;100609.47;;;20.26;87.11
73700;BME280;62005;50.082;8.988;2023-08-12T01:18:57;100608.09;;;20.29;87.41
73700;BME280;62005;50.082;8.988;2023-08-12T01:21:23;100617.16;;;20.34;89.48
73700;BME280;62005;50.082;8.988;2023-08-12T01:23:49;100614.41;;;20.34;88.02
73700;BME280;62005;50.082;8.988;2023-08-12T01:26:15;100607.81;;;20.25;87.78
73700;BME280;62005;50.082;8.988;2023-08-12T01:28:40;100593.56;;;20.23;88.05
73700;BME280;62005;50.082;8.988;2023-08-12T01:31:15;100604.81;;;20.27;88.13
73700;BME280;62005;50.082;8.988;2023-08-12T01:33:54;100600.13;;;20.27;88.65
73700;BME280;62005;50.082;8.988;2023-08-12T01:36:23;100603.44;;;20.29;88.06
73700;BME280;62005;50.082;8.988;2023-08-12T01:38:51;100593.53;;;20.28;88.14
73700;BME280;62005;50.082;8.988;2023-08-12T01:41:18;100594.66;;;20.27;88.32
73700;BME280;62005;50.082;8.988;2023-08-12T01:43:44;100602.88;;;20.32;88.28
73700;BME280;62005;50.082;8.988;2023-08-12T01:46:10;100599.59;;;20.25;88.32
73700;BME280;62005;50.082;8.988;2023-08-12T01:48:35;100600.97;;;20.28;88.65
73700;BME280;62005;50.082;8.988;2023-08-12T01:51:01;100597.41;;;20.22;88.25
73700;BME280;62005;50.082;8.988;2023-08-12T01:53:26;100608.91;;;20.29;88.41
73700;BME280;62005;50.082;8.988;2023-08-12T01:55:52;100587.00;;;20.19;88.67
73700;BME280;62005;50.082;8.988;2023-08-12T01:58:17;100608.91;;;20.29;88.72
73700;BME280;62005;50.082;8.988;2023-08-12T02:00:43;100591.38;;;20.20;88.81
73700;BME280;62005;50.082;8.988;2023-08-12T02:03:08;100595.22;;;20.24;88.95
73700;BME280;62005;50.082;8.988;2023-08-12T02:05:34;100601.78;;;20.28;89.12
73700;BME280;62005;50.082;8.988;2023-08-12T02:07:59;100603.44;;;20.29;89.21
73700;BME280;62005;50.082;8.988;2023-08-12T02:10:24;100599.56;;;20.30;89.05
73700;BME280;62005;50.082;8.988;2023-08-12T02:12:50;100585.88;;;20.25;89.10
73700;BME280;62005;50.082;8.988;2023-08-12T02:15:15;100594.06;;;20.30;89.46
73700;BME280;62005;50.082;8.988;2023-08-12T02:17:40;100580.38;;;20.25;88.94
73700;BME280;62005;50.082;8.988;2023-08-12T02:20:06;100586.38;;;20.32;89.40
73700;BME280;62005;50.082;8.988;2023-08-12T02:22:32;100586.13;;;20.29;89.16
73700;BME280;62005;50.082;8.988;2023-08-12T02:24:57;100590.47;;;20.35;89.22
73700;BME280;62005;50.082;8.988;2023-08-12T02:27:23;100584.22;;;20.24;88.92
73700;BME280;62005;50.082;8.988;2023-08-12T02:29:48;100587.50;;;20.26;88.70
73700;BME280;62005;50.082;8.988;2023-08-12T02:32:14;100600.69;;;20.29;89.21
73700;BME280;62005;50.082;8.988;2023-08-12T02:34:39;100591.91;;;20.27;88.85
73700;BME280;62005;50.082;8.988;2023-08-12T02:37:04;100596.28;;;20.28;88.84
73700;BME280;62005;50.082;8.988;2023-08-12T02:39:30;100592.72;;;20.28;89.19
73700;BME280;62005;50.082;8.988;2023-08-12T02:41:55;100589.16;;;20.27;89.37
73700;BME280;62005;50.082;8.988;2023-08-12T02:44:21;100592.94;;;20.36;89.98
73700;BME280;62005;50.082;8.988;2023-08-12T02:46:46;100599.00;;;20.33;90.14
73700;BME280;62005;50.082;8.988;2023-08-12T02:49:12;100598.44;;;20.36;90.39
73700;BME280;62005;50.082;8.988;2023-08-12T02:51:37;100588.84;;;20.34;90.65
73700;BME280;62005;50.082;8.988;2023-08-12T02:54:02;100599.84;;;20.34;90.52
73700;BME280;62005;50.082;8.988;2023-08-12T02:56:28;100607.78;;;20.35;91.02
73700;BME280;62005;50.082;8.988;2023-08-12T02:58:53;100606.69;;;20.31;91.16
73700;BME280;62005;50.082;8.988;2023-08-12T03:01:18;100605.09;;;20.25;91.80
73700;BME280;62005;50.082;8.988;2023-08-12T03:03:44;100612.72;;;20.33;92.10
73700;BME280;62005;50.082;8.988;2023-08-12T03:06:10;100623.72;;;20.33;92.77
73700;BME280;62005;50.082;8.988;2023-08-12T03:08:36;100626.47;;;20.33;92.97
73700;BME280;62005;50.082;8.988;2023-08-12T03:11:02;100639.66;;;20.31;93.12
73700;BME280;62005;50.082;8.988;2023-08-12T03:13:28;100652.28;;;20.32;93.67
73700;BME280;62005;50.082;8.988;2023-08-12T03:15:54;100660.53;;;20.32;93.78
73700;BME280;62005;50.082;8.988;2023-08-12T03:18:20;100666.03;;;20.27;94.01
73700;BME280;62005;50.082;8.988;2023-08-12T03:20:45;100671.50;;;20.37;93.88
73700;BME280;62005;50.082;8.988;2023-08-12T03:23:10;100671.50;;;20.37;93.58
73700;BME280;62005;50.082;8.988;2023-08-12T03:25:36;100662.16;;;20.38;94.00
73700;BME280;62005;50.082;8.988;2023-08-12T03:28:01;100644.59;;;20.34;94.08
73700;BME280;62005;50.082;8.988;2023-08-12T03:30:27;100648.97;;;20.40;95.71
73700;BME280;62005;50.082;8.988;2023-08-12T03:32:52;100630.31;;;20.32;94.47
73700;BME280;62005;50.082;8.988;2023-08-12T03:35:18;100647.88;;;20.36;93.75
73700;BME280;62005;50.082;8.988;2023-08-12T03:37:44;100644.59;;;20.34;95.06
73700;BME280;62005;50.082;8.988;2023-08-12T03:40:09;100635.25;;;20.35;95.97
73700;BME280;62005;50.082;8.988;2023-08-12T03:42:35;100639.41;;;20.28;97.21
73700;BME280;62005;50.082;8.988;2023-08-12T03:45:00;100632.00;;;20.23;96.10
73700;BME280;62005;50.082;8.988;2023-08-12T03:47:25;100640.78;;;20.20;96.25
73700;BME280;62005;50.082;8.988;2023-08-12T03:49:51;100643.53;;;20.20;96.94
73700;BME280;62005;50.082;8.988;2023-08-12T03:52:16;100654.78;;;20.29;96.54
73700;BME280;62005;50.082;8.988;2023-08-12T03:54:42;100644.06;;;20.27;96.96
73700;BME280;62005;50.082;8.988;2023-08-12T03:57:07;100639.16;;;20.24;97.21
73700;BME280;62005;50.082;8.988;2023-08-12T03:59:32;100645.13;;;20.31;97.48
73700;BME280;62005;50.082;8.988;2023-08-12T04:01:58;100645.69;;;20.28;96.88
73700;BME280;62005;50.082;8.988;2023-08-12T04:04:23;100650.13;;;20.24;97.25
73700;BME280;62005;50.082;8.988;2023-08-12T04:06:49;100650.66;;;20.21;97.49
73700;BME280;62005;50.082;8.988;2023-08-12T04:09:17;100656.97;;;20.22;96.79
73700;BME280;62005;50.082;8.988;2023-08-12T04:11:43;100656.16;;;20.21;97.23
73700;BME280;62005;50.082;8.988;2023-08-12T04:14:08;100659.16;;;20.20;96.77
73700;BME280;62005;50.082;8.988;2023-08-12T04:16:33;100646.28;;;20.15;97.38
73700;BME280;62005;50.082;8.988;2023-08-12T04:18:58;100633.66;;;20.14;98.02
73700;BME280;62005;50.082;8.988;2023-08-12T04:21:24;100622.97;;;20.08;98.19
73700;BME280;62005;50.082;8.988;2023-08-12T04:23:49;100620.53;;;19.96;99.55
73700;BME280;62005;50.082;8.988;2023-08-12T04:26:14;100624.88;;;20.02;98.95
73700;BME280;62005;50.082;8.988;2023-08-12T04:28:40;100612.31;;;19.91;98.41
73700;BME280;62005;50.082;8.988;2023-08-12T04:31:06;100629.25;;;20.08;98.87
73700;BME280;62005;50.082;8.988;2023-08-12T04:33:35;100630.38;;;20.02;99.01
73700;BME280;62005;50.082;8.988;2023-08-12T04:36:00;100640.22;;;20.08;98.46
73700;BME280;62005;50.082;8.988;2023-08-12T04:38:27;100656.69;;;20.08;98.79
73700;BME280;62005;50.082;8.988;2023-08-12T04:40:53;100650.94;;;20.05;98.64
73700;BME280;62005;50.082;8.988;2023-08-12T04:43:19;100637.00;;;19.96;98.92
73700;BME280;62005;50.082;8.988;2023-08-12T04:45:48;100612.59;;;19.85;99.42
73700;BME280;62005;50.082;8.988;2023-08-12T04:48:13;100634.25;;;19.91;98.12
73700;BME280;62005;50.082;8.988;2023-08-12T04:50:39;100633.16;;;19.87;98.48
73700;BME280;62005;50.082;8.988;2023-08-12T04:53:05;100612.88;;;19.88;99.00
73700;BME280;62005;50.082;8.988;2023-08-12T04:55:31;100599.94;;;19.84;99.33
73700;BME280;62005;50.082;8.988;2023-08-12T04:57:56;100635.88;;;19.92;97.76
73700;BME280;62005;50.082;8.988;2023-08-12T05:00:22;100640.53;;;19.92;97.28
73700;BME280;62005;50.082;8.988;2023-08-12T05:02:48;100641.09;;;19.89;97.97
73700;BME280;62005;50.082;8.988;2023-08-12T05:05:13;100636.44;;;19.89;98.65
73700;BME280;62005;50.082;8.988;2023-08-12T05:07:39;100629.31;;;19.88;97.85
73700;BME280;62005;50.082;8.988;2023-08-12T05:10:05;100628.22;;;19.94;98.71
73700;BME280;62005;50.082;8.988;2023-08-12T05:12:30;100624.91;;;19.92;98.51
73700;BME280;62005;50.082;8.988;2023-08-12T05:14:55;100579.44;;;19.61;100.00
73700;BME280;62005;50.082;8.988;2023-08-12T05:17:21;100601.34;;;19.81;100.00
73700;BME280;62005;50.082;8.988;2023-08-12T05:19:47;100615.63;;;19.83;100.00
73700;BME280;62005;50.082;8.988;2023-08-12T05:22:12;100596.94;;;19.75;100.00
73700;BME280;62005;50.082;8.988;2023-08-12T05:24:37;100579.97;;;19.68;99.68
73700;BME280;62005;50.082;8.988;2023-08-12T05:27:03;100597.75;;;19.86;99.93
73700;BME280;62005;50.082;8.988;2023-08-12T05:29:30;100601.88;;;19.88;99.44
73700;BME280;62005;50.082;8.988;2023-08-12T05:31:55;100608.97;;;19.99;99.45
73700;BME280;62005;50.082;8.988;2023-08-12T05:34:21;100601.31;;;20.01;100.00
73700;BME280;62005;50.082;8.988;2023-08-12T05:36:46;100579.88;;;19.98;100.00
73700;BME280;62005;50.082;8.988;2023-08-12T05:39:12;100592.50;;;20.04;100.00
73700;BME280;62005;50.082;8.988;2023-08-12T05:41:37;100555.25;;;19.83;99.19
73700;BME280;62005;50.082;8.988;2023-08-12T05:44:03;100577.66;;;20.10;99.59
73700;BME280;62005;50.082;8.988;2023-08-12T05:46:29;100587.00;;;20.19;99.54
73700;BME280;62005;50.082;8.988;2023-08-12T05:48:54;100588.88;;;20.24;100.00
73700;BME280;62005;50.082;8.988;2023-08-12T05:51:20;100578.75;;;20.19;99.74
73700;BME280;62005;50.082;8.988;2023-08-12T05:53:45;100597.41;;;20.27;99.54
73700;BME280;62005;50.082;8.988;2023-08-12T05:56:10;100592.94;;;20.36;99.69
73700;BME280;62005;50.082;8.988;2023-08-12T05:58:36;100567.69;;;20.39;100.00
73700;BME280;62005;50.082;8.988;2023-08-12T06:01:01;100580.75;;;20.62;100.00
73700;BME280;62005;50.082;8.988;2023-08-12T06:03:27;100580.19;;;20.65;99.69
73700;BME280;62005;50.082;8.988;2023-08-12T06:05:52;100559.84;;;20.66;99.18
73700;BME280;62005;50.082;8.988;2023-08-12T06:08:19;100561.91;;;20.85;97.79
73700;BME280;62005;50.082;8.988;2023-08-12T06:10:44;100560.16;;;21.04;97.22
73700;BME280;62005;50.082;8.988;2023-08-12T06:13:10;100580.09;;;21.53;97.25
73700;BME280;62005;50.082;8.988;2023-08-12T06:15:35;100586.78;;;21.70;94.92
73700;BME280;62005;50.082;8.988;2023-08-12T06:18:01;100583.34;;;22.12;94.80
73700;BME280;62005;50.082;8.988;2023-08-12T06:20:27;100586.25;;;22.44;93.51
73700;BME280;62005;50.082;8.988;2023-08-12T06:22:53;100574.81;;;22.74;91.71
73700;BME280;62005;50.082;8.988;2023-08-12T06:25:19;100569.31;;;22.74;90.24
73700;BME280;62005;50.082;8.988;2023-08-12T06:27:45;100574.00;;;22.74;89.18
73700;BME280;62005;50.082;8.988;2023-08-12T06:30:11;100584.06;;;22.83;88.78
73700;BME280;62005;50.082;8.988;2023-08-12T06:32:37;100594.78;;;23.03;89.18
73700;BME280;62005;50.082;8.988;2023-08-12T06:35:02;100590.31;;;23.07;89.06
73700;BME280;62005;50.082;8.988;2023-08-12T06:37:28;100587.84;;;23.06;88.11
73700;BME280;62005;50.082;8.988;2023-08-12T06:39:53;100588.84;;;22.96;87.69
73700;BME280;62005;50.082;8.988;2023-08-12T06:42:18;100583.91;;;22.93;87.95
73700;BME280;62005;50.082;8.988;2023-08-12T06:44:45;100589.88;;;23.00;88.49
73700;BME280;62005;50.082;8.988;2023-08-12T06:47:10;100588.69;;;23.06;88.54
73700;BME280;62005;50.082;8.988;2023-08-12T06:49:35;100587.38;;;23.17;89.37
73700;BME280;62005;50.082;8.988;2023-08-12T06:52:01;100593.31;;;23.30;88.25
73700;BME280;62005;50.082;8.988;2023-08-12T06:54:27;100585.06;;;23.24;87.27
73700;BME280;62005;50.082;8.988;2023-08-12T06:56:52;100607.41;;;23.28;86.04
73700;BME280;62005;50.082;8.988;2023-08-12T06:59:17;100576.59;;;23.02;86.43
73700;BME280;62005;50.082;8.988;2023-08-12T07:01:43;100608.94;;;23.15;85.93
73700;BME280;62005;50.082;8.988;2023-08-12T07:04:08;100599.56;;;23.16;86.71
73700;BME280;62005;50.082;8.988;2023-08-12T07:06:33;100590.16;;;23.17;87.23
73700;BME280;62005;50.082;8.988;2023-08-12T07:08:59;100582.56;;;23.28;88.14
73700;BME280;62005;50.082;8.988;2023-08-12T07:11:24;100597.44;;;23.46;87.48
73700;BME280;62005;50.082;8.988;2023-08-12T07:13:49;100590.59;;;23.43;87.22
73700;BME280;62005;50.082;8.988;2023-08-12T07:16:15;100595.50;;;23.46;86.87
73700;BME280;62005;50.082;8.988;2023-08-12T07:18:40;100587.09;;;23.38;86.54
73700;BME280;62005;50.082;8.988;2023-08-12T07:21:05;100604.59;;;23.47;86.10
73700;BME280;62005;50.082;8.988;2023-08-12T07:23:31;100608.69;;;23.49;86.61
73700;BME280;62005;50.082;8.988;2023-08-12T07:25:56;100604.31;;;23.48;86.40
73700;BME280;62005;50.082;8.988;2023-08-12T07:28:22;100606.69;;;23.55;86.80
73700;BME280;62005;50.082;8.988;2023-08-12T07:30:48;100612.84;;;23.79;86.84
73700;BME280;62005;50.082;8.988;2023-08-12T07:33:14;100604.47;;;23.84;86.59
73700;BME280;62005;50.082;8.988;2023-08-12T07:35:40;100605.38;;;23.98;85.81
73700;BME280;62005;50.082;8.988;2023-08-12T07:38:06;100603.50;;;24.07;86.04
73700;BME280;62005;50.082;8.988;2023-08-12T07:40:31;100596.78;;;24.13;85.11
73700;BME280;62005;50.082;8.988;2023-08-12T07:42:57;100583.47;;;24.15;83.75
73700;BME280;62005;50.082;8.988;2023-08-12T07:45:22;100607.00;;;24.26;82.95
73700;BME280;62005;50.082;8.988;2023-08-12T07:47:51;100604.75;;;24.28;83.58
73700;BME280;62005;50.082;8.988;2023-08-12T07:50:17;100609.56;;;24.36;82.40
73700;BME280;62005;50.082;8.988;2023-08-12T07:52:43;100611.50;;;24.35;83.26
73700;BME280;62005;50.082;8.988;2023-08-12T07:55:08;100612.22;;;24.41;81.92
73700;BME280;62005;50.082;8.988;2023-08-12T07:57:34;100612.50;;;24.53;81.91
73700;BME280;62005;50.082;8.988;2023-08-12T07:59:59;100606.19;;;24.53;82.64
73700;BME280;62005;50.082;8.988;2023-08-12T08:02:24;100608.00;;;24.57;81.13
73700;BME280;62005;50.082;8.988;2023-08-12T08:04:50;100610.25;;;24.82;81.58
73700;BME280;62005;50.082;8.988;2023-08-12T08:07:16;100604.50;;;24.92;79.38
73700;BME280;62005;50.082;8.988;2023-08-12T08:09:42;100605.66;;;25.13;79.69
73700;BME280;62005;50.082;8.988;2023-08-12T08:12:08;100609.91;;;25.19;77.15
73700;BME280;62005;50.082;8.988;2023-08-12T08:14:33;100615.34;;;25.24;78.88
73700;BME280;62005;50.082;8.988;2023-08-12T08:16:59;100605.41;;;25.23;76.19
73700;BME280;62005;50.082;8.988;2023-08-12T08:19:24;100602.56;;;25.15;76.73
73700;BME280;62005;50.082;8.988;2023-08-12T08:21:49;100604.66;;;25.31;78.23
73700;BME280;62005;50.082;8.988;2023-08-12T08:24:15;100611.03;;;25.54;75.65
73700;BME280;62005;50.082;8.988;2023-08-12T08:26:40;100596.66;;;25.52;76.10
73700;BME280;62005;50.082;8.988;2023-08-12T08:29:06;100599.16;;;25.53;76.08
73700;BME280;62005;50.082;8.988;2023-08-12T08:31:31;100601.22;;;25.48;74.81
73700;BME280;62005;50.082;8.988;2023-08-12T08:33:56;100598.91;;;25.41;77.04
73700;BME280;62005;50.082;8.988;2023-08-12T08:36:22;100595.09;;;25.37;75.10
73700;BME280;62005;50.082;8.988;2023-08-12T08:38:48;100592.66;;;25.36;76.35
73700;BME280;62005;50.082;8.988;2023-08-12T08:41:16;100603.16;;;25.25;75.96
73700;BME280;62005;50.082;8.988;2023-08-12T08:43:42;100609.28;;;25.22;77.85
73700;BME280;62005;50.082;8.988;2023-08-12T08:46:10;100623.41;;;25.34;77.90
73700;BME280;62005;50.082;8.988;2023-08-12T08:48:38;100608.19;;;25.45;77.76
73700;BME280;62005;50.082;8.988;2023-08-12T08:51:05;100614.75;;;25.49;77.80
73700;BME280;62005;50.082;8.988;2023-08-12T08:53:30;100606.81;;;25.56;77.83
73700;BME280;62005;50.082;8.988;2023-08-12T08:55:56;100591.78;;;25.49;76.73
73700;BME280;62005;50.082;8.988;2023-08-12T08:58:22;100607.59;;;25.48;76.26
73700;BME280;62005;50.082;8.988;2023-08-12T09:00:47;100595.50;;;25.44;76.78
73700;BME280;62005;50.082;8.988;2023-08-12T09:03:13;100595.50;;;25.44;76.98
73700;BME280;62005;50.082;8.988;2023-08-12T09:05:40;100603.66;;;25.49;77.02
73700;BME280;62005;50.082;8.988;2023-08-12T09:08:07;100596.50;;;25.48;77.03
73700;BME280;62005;50.082;8.988;2023-08-12T09:10:38;100595.63;;;25.39;76.80
73700;BME280;62005;50.082;8.988;2023-08-12T09:13:06;100606.94;;;25.51;78.90
73700;BME280;62005;50.082;8.988;2023-08-12T09:15:32;100601.91;;;25.53;76.21
73700;BME280;62005;50.082;8.988;2023-08-12T09:17:57;100580.50;;;25.45;76.43
73700;BME280;62005;50.082;8.988;2023-08-12T09:20:23;100600.75;;;25.77;79.16
73700;BME280;62005;50.082;8.988;2023-08-12T09:22:55;100594.91;;;26.09;78.82
73700;BME280;62005;50.082;8.988;2023-08-12T09:25:22;100570.31;;;26.16;79.15
73700;BME280;62005;50.082;8.988;2023-08-12T09:27:48;100577.69;;;26.29;77.25
73700;BME280;62005;50.082;8.988;2023-08-12T09:30:14;100556.47;;;26.16;77.73
73700;BME280;62005;50.082;8.988;2023-08-12T09:32:39;100590.09;;;26.40;75.00
73700;BME280;62005;50.082;8.988;2023-08-12T09:35:05;100578.38;;;26.43;73.10
73700;BME280;62005;50.082;8.988;2023-08-12T09:37:37;100583.97;;;26.60;73.29
73700;BME280;62005;50.082;8.988;2023-08-12T09:40:03;100540.84;;;26.37;71.35
73700;BME280;62005;50.082;8.988;2023-08-12T09:42:30;100550.47;;;26.31;72.20
73700;BME280;62005;50.082;8.988;2023-08-12T09:45:01;100555.50;;;26.29;73.15
73700;BME280;62005;50.082;8.988;2023-08-12T09:47:29;100541.44;;;26.17;72.61
73700;BME280;62005;50.082;8.988;2023-08-12T09:49:55;100540.34;;;26.18;71.85
73700;BME280;62005;50.082;8.988;2023-08-12T09:52:23;100556.53;;;26.33;74.01
73700;BME280;62005;50.082;8.988;2023-08-12T09:54:49;100554.06;;;26.40;74.35
73700;BME280;62005;50.082;8.988;2023-08-12T09:57:19;100544.94;;;26.39;74.44
73700;BME280;62005;50.082;8.988;2023-08-12T09:59:49;100551.00;;;26.50;75.37
73700;BME280;62005;50.082;8.988;2023-08-12T10:02:18;100557.22;;;26.64;76.13
73700;BME280;62005;50.082;8.988;2023-08-12T10:04:45;100559.22;;;26.72;72.60
73700;BME280;62005;50.082;8.988;2023-08-12T10:07:11;100574.38;;;26.74;71.89
73700;BME280;62005;50.082;8.988;2023-08-12T10:09:38;100585.50;;;26.83;76.28
73700;BME280;62005;50.082;8.988;2023-08-12T10:12:05;100579.47;;;26.89;74.12
73700;BME280;62005;50.082;8.988;2023-08-12T10:14:32;100556.13;;;26.90;73.70
73700;BME280;62005;50.082;8.988;2023-08-12T10:16:58;100559.69;;;26.91;73.18
73700;BME280;62005;50.082;8.988;2023-08-12T10:19:24;100556.94;;;26.91;73.18
73700;BME280;62005;50.082;8.988;2023-08-12T10:21:54;100547.47;;;26.92;72.20
73700;BME280;62005;50.082;8.988;2023-08-12T10:24:20;100555.81;;;26.92;72.11
73700;BME280;62005;50.082;8.988;2023-08-12T10:26:46;100563.13;;;26.88;71.08
73700;BME280;62005;50.082;8.988;2023-08-12T10:29:12;100569.66;;;26.75;71.13
73700;BME280;62005;50.082;8.988;2023-08-12T10:31:38;100578.13;;;26.70;73.05
73700;BME280;62005;50.082;8.988;2023-08-12T10:34:04;100570.97;;;26.69;72.41
73700;BME280;62005;50.082;8.988;2023-08-12T10:36:31;100593.31;;;26.81;73.18
73700;BME280;62005;50.082;8.988;2023-08-12T10:38:56;100582.88;;;26.78;71.81
73700;BME280;62005;50.082;8.988;2023-08-12T10:41:25;100586.97;;;26.72;72.88
73700;BME280;62005;50.082;8.988;2023-08-12T10:44:00;100597.41;;;26.75;73.81
73700;BME280;62005;50.082;8.988;2023-08-12T10:46:36;100605.22;;;26.73;75.06
73700;BME280;62005;50.082;8.988;2023-08-12T10:49:07;100626.44;;;26.69;75.21
73700;BME280;62005;50.082;8.988;2023-08-12T10:51:52;100606.41;;;26.33;72.95
73700;BME280;62005;50.082;8.988;2023-08-12T11:04:51;100622.53;;;25.25;90.30
73700;BME280;62005;50.082;8.988;2023-08-12T11:07:18;100602.81;;;25.05;91.32
73700;BME280;62005;50.082;8.988;2023-08-12T11:09:45;100627.81;;;25.00;92.76
73700;BME280;62005;50.082;8.988;2023-08-12T11:12:10;100617.19;;;24.93;92.35
73700;BME280;62005;50.082;8.988;2023-08-12T11:14:57;100612.50;;;24.80;95.04
73700;BME280;62005;50.082;8.988;2023-08-12T11:17:32;100596.97;;;24.71;95.40
73700;BME280;62005;50.082;8.988;2023-08-12T11:19:57;100591.44;;;24.57;94.80
73700;BME280;62005;50.082;8.988;2023-08-12T11:22:24;100583.25;;;24.52;95.20
73700;BME280;62005;50.082;8.988;2023-08-12T11:24:50;100587.94;;;24.38;94.07
73700;BME280;62005;50.082;8.988;2023-08-12T11:27:16;100595.75;;;24.36;95.70
73700;BME280;62005;50.082;8.988;2023-08-12T11:29:41;100601.69;;;24.29;95.64
73700;BME280;62005;50.082;8.988;2023-08-12T11:32:06;100604.97;;;24.18;95.25
73700;BME280;62005;50.082;8.988;2023-08-12T11:34:32;100602.31;;;24.13;96.03
73700;BME280;62005;50.082;8.988;2023-08-12T11:36:58;100598.59;;;24.04;96.26
73700;BME280;62005;50.082;8.988;2023-08-12T11:39:23;100597.56;;;24.00;96.80
73700;BME280;62005;50.082;8.988;2023-08-12T11:41:49;100612.50;;;23.99;97.85
73700;BME280;62005;50.082;8.988;2023-08-12T11:44:15;100615.94;;;23.91;96.69
73700;BME280;62005;50.082;8.988;2023-08-12T11:46:42;100608.56;;;23.73;95.80
73700;BME280;62005;50.082;8.988;2023-08-12T11:49:07;100597.25;;;23.56;95.88
73700;BME280;62005;50.082;8.988;2023-08-12T11:51:34;100598.69;;;23.53;95.79
73700;BME280;62005;50.082;8.988;2023-08-12T11:54:00;100595.19;;;23.48;97.41
73700;BME280;62005;50.082;8.988;2023-08-12T11:56:25;100579.34;;;23.40;97.44
73700;BME280;62005;50.082;8.988;2023-08-12T11:58:52;100583.88;;;23.31;97.95
73700;BME280;62005;50.082;8.988;2023-08-12T12:01:23;100583.59;;;23.32;97.72
73700;BME280;62005;50.082;8.988;2023-08-12T12:03:53;100565.84;;;23.19;98.73
73700;BME280;62005;50.082;8.988;2023-08-12T12:06:29;100591.34;;;23.11;99.44
73700;BME280;62005;50.082;8.988;2023-08-12T12:08:54;100594.19;;;23.06;99.20
73700;BME280;62005;50.082;8.988;2023-08-12T12:11:20;100584.38;;;23.00;99.42
73700;BME280;62005;50.082;8.988;2023-08-12T12:13:45;100593.09;;;22.89;99.64
73700;BME280;62005;50.082;8.988;2023-08-12T12:16:12;100602.22;;;22.84;100.00
73700;BME280;62005;50.082;8.988;2023-08-12T12:18:38;100610.00;;;22.82;100.00
73700;BME280;62005;50.082;8.988;2023-08-12T12:21:03;100611.78;;;22.73;100.00
73700;BME280;62005;50.082;8.988;2023-08-12T12:23:29;100621.19;;;22.72;98.65
73700;BME280;62005;50.082;8.988;2023-08-12T12:25:59;100628.91;;;22.70;100.00
73700;BME280;62005;50.082;8.988;2023-08-12T12:28:24;100604.09;;;22.47;99.28
73700;BME280;62005;50.082;8.988;2023-08-12T12:30:50;100609.81;;;22.55;99.21
73700;BME280;62005;50.082;8.988;2023-08-12T12:33:15;100579.06;;;22.43;99.96
73700;BME280;62005;50.082;8.988;2023-08-12T12:35:40;100617.56;;;22.53;100.00
73700;BME280;62005;50.082;8.988;2023-08-12T12:38:06;100623.63;;;22.50;99.62
73700;BME280;62005;50.082;8.988;2023-08-12T12:40:31;100622.06;;;22.44;99.34
73700;BME280;62005;50.082;8.988;2023-08-12T12:42:56;100626.44;;;22.45;98.77
73700;BME280;62005;50.082;8.988;2023-08-12T12:45:23;100627.03;;;22.42;98.55
73700;BME280;62005;50.082;8.988;2023-08-12T12:47:48;100627.63;;;22.39;99.61
73700;BME280;62005;50.082;8.988;2023-08-12T12:50:13;100578.94;;;22.11;98.66
73700;BME280;62005;50.082;8.988;2023-08-12T12:52:39;100617.19;;;22.36;98.59
73700;BME280;62005;50.082;8.988;2023-08-12T12:55:05;100615.25;;;22.37;98.45
73700;BME280;62005;50.082;8.988;2023-08-12T12:57:30;100606.16;;;22.36;98.63